Time;durP1;ratioP1;P1;durP2;ratioP2;P2;SDS_P1;SDS_P2;PMS_P1;PMS_P2;Temp;Humidity;BMP_temperature;BMP_pressure;BME280_temperature;BME280_humidity;BME280_pressure;Samples;Min_cycle;Max_cycle;Signal;HPM_P1;HPM_P2
2023/04/08 08:32:06;;;;;;;;;17.50;17.50;;;;;;;;4284018;28;51729;-79
2023/04/08 08:34:31;;;;;;;;;19.75;17.50;;;;;;;;5024931;28;49675;-73
2023/04/08 08:36:57;;;;;;;;;21.25;17.75;;;;;;;;5047454;28;50522;-76
2023/04/08 08:39:22;;;;;;;;;19.25;18.00;;;;;;;;5048805;28;49817;-78
2023/04/08 08:41:47;;;;;;;;;20.25;18.75;;;;;;;;5049760;28;49699;-76
2023/04/08 08:44:12;;;;;;;;;17.00;14.00;;;;;;;;5050005;28;49926;-77
2023/04/08 08:46:47;;;;;;;;;19.75;18.25;;;;;;;;5049892;28;49837;-74
2023/04/08 08:49:12;;;;;;;;;19.25;17.25;;;;;;;;5044437;28;49813;-77
2023/04/08 08:51:39;;;;;;;;;16.75;14.50;;;;;;;;5049582;28;49852;-74
2023/04/08 08:54:04;;;;;;;;;19.00;17.25;;;;;;;;5044201;28;49714;-74
2023/04/08 08:56:29;;;;;;;;;18.25;14.50;;;;;;;;5031163;28;52384;-73
2023/04/08 08:58:54;;;;;;;;;19.00;15.75;;;;;;;;5031137;28;49771;-72
2023/04/08 09:01:36;;;;;;;;;21.50;20.50;;;;;;;;5049498;28;49719;-74
2023/04/08 09:04:05;;;;;;;;;19.25;15.75;;;;;;;;5050340;28;49872;-73
2023/04/08 09:06:31;;;;;;;;;19.25;16.25;;;;;;;;5049545;28;49859;-74
2023/04/08 09:08:56;;;;;;;;;22.50;20.25;;;;;;;;5049892;28;49760;-77
2023/04/08 09:11:21;;;;;;;;;22.50;22.50;;;;;;;;5050074;28;49762;-75
2023/04/08 09:13:47;;;;;;;;;19.75;19.75;;;;;;;;5050431;28;50137;-75
2023/04/08 09:16:13;;;;;;;;;20.25;19.25;;;;;;;;5049757;28;51374;-74
2023/04/08 09:18:42;;;;;;;;;24.25;20.25;;;;;;;;5048663;28;49997;-74
2023/04/08 09:21:07;;;;;;;;;18.75;17.00;;;;;;;;5043613;28;49668;-75
2023/04/08 09:23:42;;;;;;;;;23.50;21.75;;;;;;;;5049757;28;50116;-74
2023/04/08 09:26:11;;;;;;;;;19.75;17.00;;;;;;;;5049437;28;51042;-75
2023/04/08 09:28:37;;;;;;;;;28.00;21.75;;;;;;;;5044144;28;50057;-77
2023/04/08 09:31:29;;;;;;;;;16.25;16.00;;;;;;;;5049409;28;49783;-81
2023/04/08 09:33:55;;;;;;;;;14.00;13.25;;;;;;;;5044819;28;50041;-77
2023/04/08 09:36:21;;;;;;;;;17.50;16.00;;;;;;;;5049408;28;51135;-77
2023/04/08 09:38:46;;;;;;;;;22.75;20.50;;;;;;;;5049156;28;49849;-72
2023/04/08 09:41:13;;;;;;;;;18.00;14.25;;;;;;;;5049350;28;50175;-75
2023/04/08 09:43:57;;;;;;;;;20.25;17.25;;;;;;;;5049478;28;49992;-72
2023/04/08 09:46:46;;;;;;;;;21.00;17.00;;;;;;;;5049245;28;51290;-80
2023/04/08 09:49:12;;;;;;;;;20.25;20.25;;;;;;;;5026002;28;50036;-89
2023/04/08 09:52:09;;;;;;;;;21.00;18.25;;;;;;;;5037731;28;49793;-89
2023/04/08 09:54:51;;;;;;;;;16.25;13.50;;;;;;;;5015074;28;49999;-82
2023/04/08 09:57:21;;;;;;;;;14.50;14.50;;;;;;;;5044834;28;50531;-79
2023/04/08 09:59:52;;;;;;;;;12.00;11.75;;;;;;;;5030129;28;49768;-74
2023/04/08 10:02:22;;;;;;;;;13.75;12.00;;;;;;;;5041714;28;50273;-77
2023/04/08 10:04:49;;;;;;;;;24.25;15.25;;;;;;;;5031168;28;49956;-74
2023/04/08 10:07:14;;;;;;;;;13.75;10.50;;;;;;;;5048782;28;50921;-74
2023/04/08 10:09:41;;;;;;;;;9.75;9.50;;;;;;;;5050279;28;49762;-76
2023/04/08 10:12:07;;;;;;;;;17.00;13.50;;;;;;;;5050316;28;49958;-75
2023/04/08 10:14:33;;;;;;;;;16.25;14.50;;;;;;;;5050311;28;49721;-74
2023/04/08 10:17:17;;;;;;;;;11.25;11.00;;;;;;;;5049848;28;50615;-75
2023/04/08 10:19:43;;;;;;;;;11.75;11.50;;;;;;;;5031391;28;49795;-73
2023/04/08 10:22:44;;;;;;;;;15.25;12.50;;;;;;;;5050107;28;50145;-75
2023/04/08 10:25:15;;;;;;;;;15.25;15.25;;;;;;;;4987772;28;49899;-74
2023/04/08 10:27:42;;;;;;;;;16.50;16.50;;;;;;;;4987312;28;50738;-71
2023/04/08 10:30:25;;;;;;;;;20.75;19.00;;;;;;;;4993822;28;50426;-70
2023/04/08 10:32:51;;;;;;;;;13.75;13.25;;;;;;;;4972313;28;50458;-72
2023/04/08 10:35:16;;;;;;;;;35.50;31.00;;;;;;;;4990656;28;50087;-73
2023/04/08 10:37:42;;;;;;;;;9.25;8.00;;;;;;;;4987446;28;49848;-72
2023/04/08 10:40:17;;;;;;;;;18.00;16.75;;;;;;;;4986978;28;49862;-73
2023/04/08 10:42:42;;;;;;;;;19.00;17.25;;;;;;;;4985894;28;49904;-73
2023/04/08 10:45:08;;;;;;;;;11.75;10.00;;;;;;;;4985628;28;49818;-76
2023/04/08 10:47:33;;;;;;;;;13.75;12.25;;;;;;;;4988172;28;51612;-72
2023/04/08 10:49:58;;;;;;;;;14.75;14.75;;;;;;;;4984677;28;49963;-73
2023/04/08 10:52:26;;;;;;;;;15.25;11.75;;;;;;;;4986598;28;49754;-72
2023/04/08 10:54:52;;;;;;;;;16.25;14.00;;;;;;;;4986174;28;50360;-73
2023/04/08 10:57:23;;;;;;;;;17.00;16.25;;;;;;;;4985910;28;50105;-73
2023/04/08 10:59:48;;;;;;;;;24.50;22.25;;;;;;;;5033939;28;50103;-74
2023/04/08 11:02:14;;;;;;;;;13.50;10.50;;;;;;;;5048458;28;49886;-71
2023/04/08 11:04:41;;;;;;;;;12.25;11.50;;;;;;;;5045404;28;50137;-72
2023/04/08 11:07:08;;;;;;;;;14.25;12.75;;;;;;;;5049342;28;49828;-73
2023/04/08 11:09:33;;;;;;;;;15.25;15.25;;;;;;;;5030904;28;50139;-72
2023/04/08 11:11:58;;;;;;;;;11.00;11.00;;;;;;;;5049108;28;50142;-73
2023/04/08 11:14:24;;;;;;;;;15.00;13.25;;;;;;;;5049614;28;49945;-73
2023/04/08 11:16:50;;;;;;;;;11.00;11.00;;;;;;;;5049266;28;51265;-73
2023/04/08 11:19:15;;;;;;;;;14.50;12.25;;;;;;;;5048318;28;50161;-74
2023/04/08 11:21:41;;;;;;;;;20.25;15.00;;;;;;;;5049599;28;49775;-74
2023/04/08 11:24:10;;;;;;;;;12.00;12.00;;;;;;;;5031989;28;49725;-77
2023/04/08 11:26:36;;;;;;;;;9.00;7.00;;;;;;;;5049079;28;50732;-79
2023/04/08 11:29:02;;;;;;;;;11.75;9.50;;;;;;;;5047129;28;49703;-77
2023/04/08 11:31:28;;;;;;;;;16.25;12.00;;;;;;;;5043880;28;49784;-78
2023/04/08 11:33:55;;;;;;;;;9.50;9.50;;;;;;;;5029596;28;51000;-78
2023/04/08 11:36:20;;;;;;;;;11.50;10.50;;;;;;;;5029306;28;49883;-79
2023/04/08 11:38:46;;;;;;;;;15.25;11.25;;;;;;;;5029058;28;50051;-78
2023/04/08 11:41:12;;;;;;;;;12.00;12.00;;;;;;;;5026499;28;49857;-78
2023/04/08 11:43:39;;;;;;;;;11.50;11.50;;;;;;;;5026165;28;49915;-77
2023/04/08 11:46:09;;;;;;;;;11.50;11.25;;;;;;;;5028676;28;49676;-78
2023/04/08 11:48:35;;;;;;;;;14.25;11.00;;;;;;;;5021832;28;50105;-77
2023/04/08 11:51:11;;;;;;;;;15.00;12.00;;;;;;;;5027571;28;49753;-76
2023/04/08 11:53:36;;;;;;;;;16.50;14.00;;;;;;;;5028684;28;49774;-77
2023/04/08 11:56:17;;;;;;;;;14.50;11.50;;;;;;;;5033294;28;49905;-77
2023/04/08 11:58:42;;;;;;;;;13.50;11.00;;;;;;;;5028479;28;50166;-78
2023/04/08 12:01:07;;;;;;;;;9.50;9.50;;;;;;;;5029182;28;49828;-78
2023/04/08 12:03:32;;;;;;;;;13.00;12.00;;;;;;;;5035992;28;50436;-78
2023/04/08 12:05:58;;;;;;;;;8.50;8.00;;;;;;;;5028815;28;51199;-78
2023/04/08 12:08:23;;;;;;;;;12.25;11.25;;;;;;;;5028586;28;49820;-78
2023/04/08 12:10:49;;;;;;;;;11.00;10.25;;;;;;;;5028857;28;49952;-77
2023/04/08 12:13:14;;;;;;;;;7.50;5.50;;;;;;;;5027731;28;49674;-77
2023/04/08 12:15:39;;;;;;;;;7.50;7.50;;;;;;;;5028462;28;49849;-79
2023/04/08 12:18:05;;;;;;;;;11.75;9.00;;;;;;;;5029211;28;49827;-78
2023/04/08 12:20:30;;;;;;;;;10.50;10.25;;;;;;;;5030371;28;49942;-79
2023/04/08 12:22:55;;;;;;;;;8.50;8.50;;;;;;;;5029220;28;49709;-78
2023/04/08 12:25:20;;;;;;;;;11.25;10.00;;;;;;;;5028506;28;49868;-78
2023/04/08 12:27:45;;;;;;;;;10.00;9.75;;;;;;;;5028820;28;50156;-78
2023/04/08 12:30:11;;;;;;;;;9.50;6.75;;;;;;;;5030879;28;49866;-78
2023/04/08 12:32:36;;;;;;;;;9.25;7.50;;;;;;;;5024886;28;49666;-78
2023/04/08 12:35:02;;;;;;;;;7.00;7.00;;;;;;;;5048253;28;49977;-77
2023/04/08 12:37:27;;;;;;;;;11.50;9.00;;;;;;;;5048276;28;49720;-78
2023/04/08 12:39:52;;;;;;;;;10.25;10.25;;;;;;;;5047982;28;49830;-78
2023/04/08 12:42:17;;;;;;;;;12.50;11.50;;;;;;;;5048678;28;49654;-78
2023/04/08 12:44:43;;;;;;;;;12.50;11.00;;;;;;;;5047937;28;49857;-78
2023/04/08 12:49:41;;;;;;;;;6.25;5.75;;;;;;;;5068997;27;49960;-71
2023/04/08 12:52:07;;;;;;;;;7.25;7.25;;;;;;;;5072042;27;49664;-71
2023/04/08 12:54:32;;;;;;;;;7.00;7.00;;;;;;;;5074201;27;50755;-71
2023/04/08 12:56:57;;;;;;;;;5.00;5.00;;;;;;;;5067208;28;49709;-71
2023/04/08 12:59:23;;;;;;;;;6.25;5.25;;;;;;;;5075965;27;49996;-71
2023/04/08 13:01:48;;;;;;;;;7.25;7.25;;;;;;;;5072628;27;49914;-71
2023/04/08 13:04:13;;;;;;;;;7.50;7.50;;;;;;;;5076846;27;49791;-71
2023/04/08 13:06:38;;;;;;;;;11.75;8.25;;;;;;;;5072809;27;49842;-71
2023/04/08 13:09:03;;;;;;;;;7.00;7.00;;;;;;;;5076983;27;49869;-71
2023/04/08 13:11:28;;;;;;;;;8.00;8.00;;;;;;;;5067495;28;50173;-71
2023/04/08 13:13:54;;;;;;;;;8.25;8.25;;;;;;;;5078407;27;49783;-72
2023/04/08 13:16:19;;;;;;;;;7.00;7.00;;;;;;;;5068531;28;49727;-72
2023/04/08 13:18:44;;;;;;;;;7.25;5.50;;;;;;;;5072548;27;49730;-70
2023/04/08 13:21:09;;;;;;;;;8.00;8.00;;;;;;;;5073623;27;49990;-71
2023/04/08 13:23:35;;;;;;;;;8.25;7.00;;;;;;;;5072997;27;50089;-71
2023/04/08 13:26:01;;;;;;;;;6.00;5.75;;;;;;;;5070402;27;50111;-71
2023/04/08 13:28:26;;;;;;;;;8.50;7.00;;;;;;;;5072234;27;50022;-71
2023/04/08 13:30:52;;;;;;;;;5.50;4.25;;;;;;;;5053067;28;49667;-71
2023/04/08 13:33:17;;;;;;;;;6.50;6.50;;;;;;;;5072039;27;50480;-71
2023/04/08 13:35:42;;;;;;;;;8.75;8.50;;;;;;;;5070831;27;50303;-71
2023/04/08 13:38:08;;;;;;;;;8.25;8.25;;;;;;;;5071626;27;49817;-71
2023/04/08 13:40:33;;;;;;;;;6.25;6.25;;;;;;;;5071569;27;50010;-71
2023/04/08 13:42:58;;;;;;;;;9.25;9.25;;;;;;;;5071373;27;50159;-72
2023/04/08 13:45:23;;;;;;;;;8.00;8.00;;;;;;;;5070298;28;49831;-72
2023/04/08 13:47:48;;;;;;;;;8.25;8.00;;;;;;;;5071975;27;49950;-71
2023/04/08 13:50:14;;;;;;;;;10.25;10.25;;;;;;;;5071896;27;49551;-71
2023/04/08 13:52:40;;;;;;;;;11.25;11.00;;;;;;;;5070611;27;49806;-72
2023/04/08 13:55:05;;;;;;;;;9.25;8.75;;;;;;;;5072620;27;49732;-72
2023/04/08 13:57:30;;;;;;;;;13.75;11.75;;;;;;;;5074614;27;50252;-72
2023/04/08 13:59:56;;;;;;;;;10.75;9.50;;;;;;;;5070053;28;49917;-72
2023/04/08 14:02:22;;;;;;;;;9.75;8.25;;;;;;;;5072600;27;50254;-72
2023/04/08 14:04:47;;;;;;;;;9.00;8.75;;;;;;;;5072481;27;50040;-71
2023/04/08 14:07:13;;;;;;;;;7.00;7.00;;;;;;;;5074053;27;49897;-71
2023/04/08 14:09:38;;;;;;;;;11.25;10.00;;;;;;;;5070853;28;50002;-71
2023/04/08 14:12:03;;;;;;;;;11.00;11.00;;;;;;;;5078343;27;49763;-72
2023/04/08 14:14:28;;;;;;;;;4.00;3.75;;;;;;;;5070423;27;50123;-73
2023/04/08 14:16:54;;;;;;;;;8.50;8.00;;;;;;;;5074025;27;49679;-72
2023/04/08 14:19:19;;;;;;;;;7.50;6.50;;;;;;;;5069913;27;49962;-72
2023/04/08 14:21:44;;;;;;;;;8.00;7.50;;;;;;;;5078243;27;50621;-73
2023/04/08 14:24:09;;;;;;;;;8.25;7.25;;;;;;;;5059409;28;49818;-72
2023/04/08 14:26:35;;;;;;;;;10.50;7.00;;;;;;;;5075994;27;49671;-73
2023/04/08 14:29:04;;;;;;;;;6.75;6.00;;;;;;;;5076347;27;49936;-78
2023/04/08 14:31:30;;;;;;;;;8.00;8.00;;;;;;;;5079251;27;50607;-71
2023/04/08 14:33:55;;;;;;;;;9.00;7.25;;;;;;;;5076656;27;49888;-72
2023/04/08 14:36:23;;;;;;;;;10.00;9.25;;;;;;;;5079232;27;50364;-72
2023/04/08 14:38:48;;;;;;;;;8.50;7.25;;;;;;;;5076163;27;50251;-71
2023/04/08 14:41:13;;;;;;;;;7.25;6.75;;;;;;;;5638131;22;51579;-77
2023/04/08 14:43:38;;;;;;;;;6.00;6.00;;;;;;;;5068657;28;49753;-78
2023/04/08 14:46:03;;;;;;;;;7.25;7.00;;;;;;;;5066870;28;49745;-78
2023/04/08 14:48:29;;;;;;;;;11.50;10.50;;;;;;;;5065988;27;49729;-80
2023/04/08 14:50:55;;;;;;;;;9.50;9.50;;;;;;;;5068182;27;50759;-80
2023/04/08 14:53:20;;;;;;;;;9.50;9.50;;;;;;;;5051063;28;50227;-85
2023/04/08 14:55:46;;;;;;;;;6.00;5.50;;;;;;;;5068509;28;49779;-78
2023/04/08 14:58:11;;;;;;;;;7.50;7.25;;;;;;;;5070044;28;49777;-77
2023/04/08 15:00:36;;;;;;;;;9.75;9.25;;;;;;;;5066343;27;50031;-78
2023/04/08 15:03:02;;;;;;;;;10.00;8.75;;;;;;;;5049789;28;49845;-81
2023/04/08 15:05:27;;;;;;;;;13.25;11.00;;;;;;;;5069443;28;49947;-75
2023/04/08 15:07:52;;;;;;;;;9.75;9.75;;;;;;;;5069681;27;50068;-76
2023/04/08 15:10:17;;;;;;;;;9.50;9.50;;;;;;;;5068735;28;50961;-74
2023/04/08 15:12:42;;;;;;;;;10.25;9.75;;;;;;;;5068815;28;49761;-74
2023/04/08 15:15:08;;;;;;;;;9.25;9.25;;;;;;;;5066394;28;49904;-77
2023/04/08 15:17:33;;;;;;;;;10.75;10.00;;;;;;;;5068151;27;50028;-81
2023/04/08 15:19:58;;;;;;;;;9.25;7.50;;;;;;;;5071898;27;51706;-81
2023/04/08 15:22:24;;;;;;;;;9.75;8.25;;;;;;;;5069742;28;49778;-80
2023/04/08 15:24:49;;;;;;;;;12.00;10.50;;;;;;;;5069893;28;49667;-80
2023/04/08 15:27:14;;;;;;;;;9.50;7.50;;;;;;;;5071454;28;50409;-83
2023/04/08 15:29:40;;;;;;;;;7.00;7.00;;;;;;;;5067916;28;50751;-81
2023/04/08 15:32:05;;;;;;;;;9.50;9.00;;;;;;;;5066388;28;49588;-79
2023/04/08 15:34:30;;;;;;;;;10.25;9.00;;;;;;;;5068300;28;49764;-80
2023/04/08 15:36:56;;;;;;;;;13.25;10.25;;;;;;;;5070071;28;50055;-79
2023/04/08 15:39:21;;;;;;;;;14.75;13.75;;;;;;;;5069280;28;49718;-81
2023/04/08 15:41:46;;;;;;;;;11.50;10.25;;;;;;;;5069265;28;50161;-74
2023/04/08 15:44:11;;;;;;;;;7.25;7.25;;;;;;;;5068098;28;50274;-79
2023/04/08 15:46:36;;;;;;;;;10.25;10.25;;;;;;;;5070287;28;50173;-78
2023/04/08 15:49:02;;;;;;;;;11.00;11.00;;;;;;;;5065458;28;49854;-76
2023/04/08 15:51:27;;;;;;;;;9.75;8.25;;;;;;;;5068286;28;49943;-71
2023/04/08 15:53:52;;;;;;;;;12.50;12.50;;;;;;;;5065427;28;49691;-77
2023/04/08 15:56:17;;;;;;;;;12.25;9.25;;;;;;;;5063783;27;50113;-74
2023/04/08 15:58:43;;;;;;;;;13.50;13.25;;;;;;;;5068691;28;49887;-77
2023/04/08 16:01:09;;;;;;;;;16.00;14.50;;;;;;;;5068676;28;50186;-77
2023/04/08 16:03:34;;;;;;;;;8.00;8.00;;;;;;;;5068556;28;50058;-78
2023/04/08 16:05:59;;;;;;;;;13.50;10.25;;;;;;;;5071047;27;50465;-78
2023/04/08 16:08:25;;;;;;;;;15.50;14.00;;;;;;;;5069375;28;49823;-81
2023/04/08 16:10:50;;;;;;;;;12.00;9.75;;;;;;;;5069176;28;49754;-79
2023/04/08 16:13:15;;;;;;;;;10.25;10.25;;;;;;;;5069651;28;50165;-78
2023/04/08 16:15:41;;;;;;;;;10.50;10.50;;;;;;;;5071428;28;50068;-78
2023/04/08 16:18:07;;;;;;;;;13.00;11.50;;;;;;;;5055370;28;52676;-80
2023/04/08 16:20:32;;;;;;;;;18.00;16.25;;;;;;;;5066388;28;49770;-79
2023/04/08 16:22:57;;;;;;;;;15.75;15.00;;;;;;;;5070343;28;49769;-79
2023/04/08 16:25:22;;;;;;;;;16.75;14.25;;;;;;;;5063091;28;49929;-79
2023/04/08 16:27:48;;;;;;;;;11.50;11.50;;;;;;;;5069417;28;51034;-80
2023/04/08 16:30:13;;;;;;;;;15.50;13.25;;;;;;;;5069236;28;49639;-79
2023/04/08 16:32:39;;;;;;;;;13.25;12.75;;;;;;;;5062904;28;50145;-80
2023/04/08 16:35:04;;;;;;;;;15.50;11.00;;;;;;;;5069592;28;49614;-82
2023/04/08 16:37:30;;;;;;;;;16.00;15.00;;;;;;;;5068831;28;50421;-82
2023/04/08 16:39:55;;;;;;;;;17.00;14.25;;;;;;;;5068654;28;50001;-81
2023/04/08 16:42:20;;;;;;;;;17.50;16.00;;;;;;;;5068823;28;50053;-82
2023/04/08 16:44:46;;;;;;;;;14.50;12.00;;;;;;;;5070076;28;50028;-84
2023/04/08 16:47:11;;;;;;;;;17.00;14.50;;;;;;;;5069404;28;50664;-79
2023/04/08 16:49:36;;;;;;;;;21.50;17.50;;;;;;;;5068512;28;49770;-82
2023/04/08 16:52:01;;;;;;;;;19.00;18.00;;;;;;;;5068396;28;49812;-83
2023/04/08 16:54:26;;;;;;;;;19.50;18.00;;;;;;;;5068838;28;49624;-81
2023/04/08 16:56:51;;;;;;;;;13.00;13.00;;;;;;;;5068397;27;49868;-80
2023/04/08 16:59:17;;;;;;;;;15.50;14.50;;;;;;;;5067742;28;49883;-81
2023/04/08 17:01:42;;;;;;;;;21.00;17.00;;;;;;;;5070034;28;50172;-82
2023/04/08 17:04:07;;;;;;;;;15.50;15.00;;;;;;;;5069546;28;50136;-82
2023/04/08 17:06:34;;;;;;;;;13.75;13.75;;;;;;;;5070962;28;52060;-82
2023/04/08 17:08:59;;;;;;;;;19.25;16.00;;;;;;;;5073225;28;50185;-82
2023/04/08 17:11:25;;;;;;;;;19.00;16.25;;;;;;;;5072451;28;49840;-82
2023/04/08 17:13:50;;;;;;;;;22.00;18.75;;;;;;;;5065132;28;50406;-80
2023/04/08 17:16:16;;;;;;;;;18.00;16.25;;;;;;;;5055050;28;51996;-80
2023/04/08 17:18:41;;;;;;;;;23.00;19.00;;;;;;;;5072735;28;50020;-81
2023/04/08 17:21:07;;;;;;;;;20.75;19.00;;;;;;;;5072309;28;49699;-76
2023/04/08 17:23:32;;;;;;;;;19.50;15.00;;;;;;;;5072882;27;50027;-79
2023/04/08 17:25:58;;;;;;;;;17.25;13.75;;;;;;;;5071315;28;51046;-82
2023/04/08 17:28:23;;;;;;;;;16.25;15.50;;;;;;;;5072048;28;49794;-76
2023/04/08 17:30:49;;;;;;;;;19.50;18.25;;;;;;;;5071295;28;49802;-76
2023/04/08 17:33:14;;;;;;;;;21.00;20.00;;;;;;;;5071550;28;50111;-76
2023/04/08 17:35:40;;;;;;;;;14.50;14.50;;;;;;;;5070985;28;49958;-74
2023/04/08 17:38:06;;;;;;;;;19.50;18.50;;;;;;;;5071090;28;49705;-73
2023/04/08 17:40:31;;;;;;;;;18.50;18.50;;;;;;;;5053203;28;49648;-73
2023/04/08 17:42:56;;;;;;;;;20.00;17.00;;;;;;;;5071273;28;49905;-73
2023/04/08 17:45:24;;;;;;;;;23.25;18.00;;;;;;;;5071189;28;49896;-73
2023/04/08 17:47:50;;;;;;;;;18.50;16.25;;;;;;;;5055252;28;49827;-73
2023/04/08 17:50:16;;;;;;;;;19.00;19.00;;;;;;;;5070810;28;50190;-72
2023/04/08 17:52:41;;;;;;;;;23.50;21.25;;;;;;;;5077056;27;50129;-73
2023/04/08 17:55:07;;;;;;;;;21.25;20.50;;;;;;;;5064649;28;49803;-73
2023/04/08 17:57:32;;;;;;;;;22.25;20.25;;;;;;;;5070972;28;49949;-73
2023/04/08 17:59:57;;;;;;;;;19.25;19.25;;;;;;;;5070855;27;49832;-75
2023/04/08 18:02:22;;;;;;;;;26.25;21.00;;;;;;;;5069200;27;50060;-76
2023/04/08 18:04:49;;;;;;;;;24.50;21.75;;;;;;;;5069974;28;50473;-75
2023/04/08 18:07:14;;;;;;;;;22.50;21.75;;;;;;;;5069647;28;49776;-79
2023/04/08 18:09:40;;;;;;;;;24.50;22.25;;;;;;;;5069368;28;50155;-77
2023/04/08 18:12:05;;;;;;;;;23.00;20.25;;;;;;;;5069242;28;49907;-79
2023/04/08 18:14:30;;;;;;;;;16.75;13.75;;;;;;;;5072875;27;50128;-81
2023/04/08 18:16:56;;;;;;;;;27.00;23.00;;;;;;;;5070707;28;49998;-79
2023/04/08 18:19:23;;;;;;;;;23.00;21.75;;;;;;;;5070182;28;49569;-79
2023/04/08 18:21:48;;;;;;;;;17.75;15.50;;;;;;;;5069694;28;49718;-78
2023/04/08 18:24:13;;;;;;;;;19.75;18.50;;;;;;;;5070392;28;50652;-81
2023/04/08 18:26:38;;;;;;;;;24.00;22.00;;;;;;;;5070204;28;49848;-79
2023/04/08 18:29:03;;;;;;;;;26.00;20.50;;;;;;;;5071368;28;49832;-85
2023/04/08 18:31:28;;;;;;;;;20.75;20.75;;;;;;;;5071590;28;49689;-80
2023/04/08 18:33:54;;;;;;;;;26.25;21.00;;;;;;;;5070034;28;49803;-80
2023/04/08 18:36:19;;;;;;;;;22.75;19.75;;;;;;;;5070817;28;49787;-83
2023/04/08 18:38:44;;;;;;;;;15.25;13.50;;;;;;;;5070748;28;49873;-78
2023/04/08 18:41:10;;;;;;;;;22.00;22.00;;;;;;;;5070171;28;49872;-72
2023/04/08 18:43:35;;;;;;;;;16.25;16.25;;;;;;;;5053899;28;52524;-72
2023/04/08 18:46:01;;;;;;;;;15.75;13.75;;;;;;;;5067794;28;50210;-76
2023/04/08 18:48:26;;;;;;;;;18.25;17.75;;;;;;;;5068218;28;49812;-75
2023/04/08 18:50:51;;;;;;;;;18.50;15.50;;;;;;;;5067540;28;50009;-76
2023/04/08 18:53:16;;;;;;;;;17.75;15.75;;;;;;;;5065643;28;50979;-76
2023/04/08 18:55:43;;;;;;;;;18.50;17.25;;;;;;;;5069552;28;49829;-76
2023/04/08 18:58:08;;;;;;;;;18.00;16.00;;;;;;;;5069776;28;50067;-78
2023/04/08 19:00:34;;;;;;;;;14.50;13.00;;;;;;;;5064954;28;50044;-75
2023/04/08 19:02:59;;;;;;;;;15.50;14.75;;;;;;;;5047940;28;52279;-75
2023/04/08 19:05:25;;;;;;;;;16.25;14.00;;;;;;;;5069775;28;49809;-78
2023/04/08 19:07:50;;;;;;;;;27.00;20.00;;;;;;;;5069480;28;50145;-79
2023/04/08 19:10:15;;;;;;;;;21.00;19.25;;;;;;;;5070731;27;50124;-82
2023/04/08 19:12:40;;;;;;;;;18.75;18.75;;;;;;;;5067176;28;49858;-80
2023/04/08 19:15:07;;;;;;;;;20.50;18.00;;;;;;;;5069967;28;49651;-82
2023/04/08 19:17:32;;;;;;;;;16.75;15.25;;;;;;;;5068853;28;49855;-77
2023/04/08 19:19:57;;;;;;;;;20.50;19.25;;;;;;;;5070389;27;49738;-80
2023/04/08 19:22:23;;;;;;;;;18.00;18.00;;;;;;;;5068917;28;50047;-81
2023/04/08 19:24:49;;;;;;;;;17.00;13.25;;;;;;;;5067377;28;50519;-76
2023/04/08 19:27:14;;;;;;;;;20.50;19.75;;;;;;;;5069469;28;50249;-75
2023/04/08 19:29:39;;;;;;;;;21.00;17.00;;;;;;;;5069883;28;49783;-76
2023/04/08 19:32:05;;;;;;;;;22.75;21.00;;;;;;;;5065769;28;50647;-78
2023/04/08 19:34:30;;;;;;;;;13.00;12.00;;;;;;;;5067367;28;49781;-77
2023/04/08 19:36:55;;;;;;;;;16.25;16.00;;;;;;;;5070573;28;49797;-78
2023/04/08 19:39:20;;;;;;;;;13.25;13.25;;;;;;;;5070013;28;49946;-79
2023/04/08 19:41:46;;;;;;;;;19.00;15.25;;;;;;;;5068799;28;49841;-77
2023/04/08 19:44:11;;;;;;;;;19.75;19.75;;;;;;;;5068875;28;49842;-78
2023/04/08 19:46:36;;;;;;;;;21.50;20.25;;;;;;;;5069536;28;49880;-76
2023/04/08 19:49:02;;;;;;;;;18.50;17.50;;;;;;;;5069095;28;49718;-76
2023/04/08 19:51:28;;;;;;;;;20.25;18.25;;;;;;;;5050642;28;52223;-76
2023/04/08 19:53:53;;;;;;;;;18.75;17.50;;;;;;;;5068607;28;49743;-77
2023/04/08 19:56:18;;;;;;;;;19.50;16.75;;;;;;;;5068702;28;49925;-76
2023/04/08 19:58:44;;;;;;;;;21.25;18.25;;;;;;;;5068619;28;49687;-76
2023/04/08 20:01:12;;;;;;;;;17.75;17.00;;;;;;;;5050716;28;51795;-77
2023/04/08 20:03:37;;;;;;;;;16.75;16.50;;;;;;;;5060980;28;49638;-78
2023/04/08 20:06:02;;;;;;;;;20.00;16.75;;;;;;;;5062852;28;50056;-79
2023/04/08 20:08:27;;;;;;;;;17.75;17.75;;;;;;;;5069644;28;50050;-78
2023/04/08 20:10:53;;;;;;;;;17.75;16.00;;;;;;;;5069706;28;50521;-79
2023/04/08 20:13:18;;;;;;;;;17.25;16.00;;;;;;;;5068776;28;49786;-79
2023/04/08 20:15:44;;;;;;;;;18.50;17.75;;;;;;;;5067789;28;50066;-79
2023/04/08 20:18:09;;;;;;;;;21.00;18.25;;;;;;;;5066863;28;49978;-78
2023/04/08 20:20:34;;;;;;;;;23.00;18.50;;;;;;;;5069640;28;49874;-77
2023/04/08 20:22:59;;;;;;;;;20.50;20.50;;;;;;;;5068865;28;49863;-77
2023/04/08 20:25:24;;;;;;;;;17.00;17.00;;;;;;;;5068549;28;49650;-80
2023/04/08 20:27:50;;;;;;;;;20.25;19.50;;;;;;;;5068124;28;49896;-80
2023/04/08 20:30:15;;;;;;;;;10.75;10.75;;;;;;;;5068080;28;50596;-80
2023/04/08 20:32:40;;;;;;;;;18.00;17.00;;;;;;;;5069046;28;49821;-79
2023/04/08 20:35:05;;;;;;;;;21.25;19.50;;;;;;;;5071207;28;49943;-78
2023/04/08 20:37:31;;;;;;;;;20.25;18.50;;;;;;;;5053333;28;50316;-78
2023/04/08 20:39:56;;;;;;;;;16.25;16.25;;;;;;;;5061221;28;52157;-79
2023/04/08 20:42:21;;;;;;;;;17.00;17.00;;;;;;;;5072703;28;49686;-81
2023/04/08 20:44:47;;;;;;;;;23.25;22.75;;;;;;;;5073422;28;49683;-83
2023/04/08 20:47:12;;;;;;;;;22.75;22.75;;;;;;;;5072755;28;50211;-81
2023/04/08 20:49:39;;;;;;;;;21.50;20.50;;;;;;;;5073522;28;50447;-81
2023/04/08 20:52:05;;;;;;;;;22.00;21.00;;;;;;;;5072400;28;49893;-77
2023/04/08 20:54:30;;;;;;;;;20.50;19.25;;;;;;;;5072344;28;49781;-80
2023/04/08 20:56:55;;;;;;;;;17.25;15.50;;;;;;;;5073137;28;49666;-80
2023/04/08 20:59:21;;;;;;;;;26.75;22.50;;;;;;;;5073032;28;49784;-80
2023/04/08 21:01:46;;;;;;;;;23.75;20.75;;;;;;;;5070883;28;49961;-79
2023/04/08 21:04:12;;;;;;;;;21.75;20.00;;;;;;;;5073218;28;49810;-80
2023/04/08 21:06:37;;;;;;;;;21.50;20.00;;;;;;;;5072546;28;49718;-77
2023/04/08 21:09:02;;;;;;;;;24.50;22.75;;;;;;;;5066877;28;51806;-77
2023/04/08 21:11:27;;;;;;;;;23.00;21.50;;;;;;;;5069096;28;50104;-77
2023/04/08 21:13:52;;;;;;;;;22.00;21.00;;;;;;;;5071657;28;50135;-79
2023/04/08 21:16:18;;;;;;;;;22.50;21.75;;;;;;;;5072080;28;49898;-78
2023/04/08 21:18:43;;;;;;;;;27.50;23.50;;;;;;;;5047659;28;52361;-81
2023/04/08 21:21:09;;;;;;;;;21.25;21.25;;;;;;;;5068878;28;49849;-80
2023/04/08 21:23:34;;;;;;;;;25.25;23.50;;;;;;;;5071129;28;51029;-77
2023/04/08 21:25:59;;;;;;;;;26.50;22.25;;;;;;;;5070649;28;49847;-77
2023/04/08 21:28:25;;;;;;;;;25.25;21.25;;;;;;;;5080102;27;51141;-77
2023/04/08 21:30:50;;;;;;;;;17.00;17.00;;;;;;;;5070778;28;50073;-77
2023/04/08 21:33:15;;;;;;;;;28.00;26.25;;;;;;;;5071256;28;49976;-77
2023/04/08 21:35:40;;;;;;;;;27.75;25.25;;;;;;;;5071362;28;50085;-77
2023/04/08 21:38:06;;;;;;;;;32.00;30.50;;;;;;;;5066122;27;52540;-77
2023/04/08 21:40:31;;;;;;;;;30.00;29.25;;;;;;;;5071311;28;50063;-76
2023/04/08 21:42:57;;;;;;;;;22.25;21.50;;;;;;;;5071120;28;49770;-77
2023/04/08 21:45:23;;;;;;;;;26.50;26.00;;;;;;;;5070581;28;50066;-78
2023/04/08 21:47:52;;;;;;;;;29.25;26.50;;;;;;;;5073511;28;50720;-77
2023/04/08 21:50:17;;;;;;;;;25.00;23.25;;;;;;;;5057724;27;49873;-77
2023/04/08 21:52:42;;;;;;;;;27.00;24.50;;;;;;;;5057344;28;49726;-77
2023/04/08 21:55:07;;;;;;;;;26.50;24.75;;;;;;;;5071921;28;49872;-77
2023/04/08 21:57:33;;;;;;;;;30.00;24.00;;;;;;;;5064912;28;50225;-77
2023/04/08 21:59:58;;;;;;;;;28.50;25.75;;;;;;;;5030946;28;50113;-75
2023/04/08 22:02:23;;;;;;;;;26.00;22.25;;;;;;;;5046029;28;50375;-76
2023/04/08 22:04:48;;;;;;;;;29.00;27.75;;;;;;;;5044872;28;51034;-75
2023/04/08 22:07:14;;;;;;;;;25.50;24.75;;;;;;;;5046857;28;50614;-75
2023/04/08 22:09:39;;;;;;;;;19.00;19.00;;;;;;;;5047123;28;50836;-74
2023/04/08 22:12:05;;;;;;;;;28.75;25.50;;;;;;;;5046670;28;50743;-75
2023/04/08 22:14:30;;;;;;;;;27.25;23.00;;;;;;;;5047488;28;50428;-75
2023/04/08 22:16:55;;;;;;;;;33.00;28.50;;;;;;;;5046409;28;52383;-77
2023/04/08 22:19:20;;;;;;;;;28.50;24.75;;;;;;;;5045576;27;49832;-76
2023/04/08 22:21:45;;;;;;;;;31.25;31.25;;;;;;;;5045886;27;50945;-77
2023/04/08 22:24:11;;;;;;;;;30.75;22.50;;;;;;;;5039897;28;50129;-75
2023/04/08 22:26:36;;;;;;;;;31.75;27.75;;;;;;;;5044168;28;51087;-76
2023/04/08 22:29:01;;;;;;;;;25.00;24.00;;;;;;;;5031189;28;50066;-76
2023/04/08 22:31:26;;;;;;;;;24.50;21.50;;;;;;;;5046821;28;50269;-76
2023/04/08 22:33:52;;;;;;;;;31.25;25.00;;;;;;;;5045381;28;50137;-76
2023/04/08 22:36:17;;;;;;;;;27.50;26.25;;;;;;;;5042931;28;50958;-76
2023/04/08 22:38:42;;;;;;;;;29.75;25.00;;;;;;;;5061920;28;49890;-76
2023/04/08 22:41:20;;;;;;;;;27.25;27.25;;;;;;;;5055434;28;50080;-77
2023/04/08 22:43:46;;;;;;;;;30.25;25.75;;;;;;;;5067104;28;50014;-77
2023/04/08 22:46:13;;;;;;;;;23.25;20.00;;;;;;;;5051649;28;51257;-77
2023/04/08 22:48:38;;;;;;;;;30.00;23.50;;;;;;;;5069990;28;50175;-77
2023/04/08 22:51:03;;;;;;;;;25.25;23.75;;;;;;;;5069958;28;49769;-77